< < Back
Terminal Aerodrome Forecast


Current Version              Previous Versions:   1  2  3  4  5  6  7  8  9  

Terminal Aerodrome Forecast

800
FTUS42 KCHS 241700
TAFSAV
TAF
KSAV 241731Z 2418/2518 VRB03KT P6SM SCT250
     FM251400 34006KT P6SM SKC=



Latest METAR

517
SAUS80 KWBC 251400 RRE
MTRSAV
METAR KSAV 251353Z 35003KT 10SM CLR 17/10 A3005 RMK AO2 SLP173
T01720100


USA.gov is the U.S. government's official web portal to all federal, state and local government web resources and services.